Time,TemperatureF,DewpointF,PressureIn,WindDirection,WindDirectionDegrees,WindSpeedMPH,WindSpeedGustMPH,Humidity,HourlyPrecipIn,Conditions,Clouds,dailyrainin,SoftwareType,DateUTC
2013-02-07 00:05:00,44.5,31.5,30.07,SSE,155,4.0,5.0,60,0.00,,,0.00,Wunderground v.1.15,2013-02-07 07:05:00,
2013-02-07 00:15:00,44.2,31.6,30.07,SSE,155,2.0,3.0,61,0.00,,,0.00,Wunderground v.1.15,2013-02-07 07:15:00,
2013-02-07 00:20:00,43.9,31.7,30.07,SSE,155,2.0,4.0,62,0.00,,,0.00,Wunderground v.1.15,2013-02-07 07:20:00,
2013-02-07 00:25:00,44.6,31.6,30.07,SSE,155,2.0,4.0,60,0.00,,,0.00,Wunderground v.1.15,2013-02-07 07:25:00,
2013-02-07 00:30:00,45.8,31.9,30.08,SSE,155,3.0,3.0,58,0.00,,,0.00,Wunderground v.1.15,2013-02-07 07:30:00,
2013-02-07 00:40:00,44.8,31.3,30.08,SSE,155,1.0,4.0,59,0.00,,,0.00,Wunderground v.1.15,2013-02-07 07:40:00,
2013-02-07 00:45:00,44.1,31.5,30.08,SSE,155,2.0,4.0,61,0.00,,,0.00,Wunderground v.1.15,2013-02-07 07:45:00,
2013-02-07 00:50:00,44.2,31.6,30.08,SSE,155,2.0,2.0,61,0.00,,,0.00,Wunderground v.1.15,2013-02-07 07:50:00,
2013-02-07 00:55:00,44.3,31.7,30.08,SSE,155,1.0,2.0,61,0.00,,,0.00,Wunderground v.1.15,2013-02-07 07:55:00,
2013-02-07 01:00:00,44.3,32.1,30.08,SSE,155,2.0,6.0,62,0.00,,,0.00,Wunderground v.1.15,2013-02-07 08:00:00,
2013-02-07 01:05:00,45.2,32.1,30.08,SSE,154,3.0,6.0,60,0.00,,,0.00,Wunderground v.1.15,2013-02-07 08:05:00,
2013-02-07 01:15:00,45.4,32.3,30.08,SE,146,3.0,4.0,60,0.00,,,0.00,Wunderground v.1.15,2013-02-07 08:15:00,
2013-02-07 01:20:00,45.7,32.2,30.08,SE,146,2.0,2.0,59,0.00,,,0.00,Wunderground v.1.15,2013-02-07 08:20:00,
2013-02-07 01:35:00,42.8,31.8,30.08,SE,146,3.0,3.0,65,0.00,,,0.00,Wunderground v.1.15,2013-02-07 08:35:00,
2013-02-07 01:40:00,41.9,31.7,30.08,SE,146,3.0,3.0,67,0.00,,,0.00,Wunderground v.1.15,2013-02-07 08:40:00,
2013-02-07 01:50:00,44.1,31.9,30.09,SE,146,2.0,2.0,62,0.00,,,0.00,Wunderground v.1.15,2013-02-07 08:50:00,
2013-02-07 01:55:00,43.8,32.0,30.09,SE,146,3.0,4.0,63,0.00,,,0.00,Wunderground v.1.15,2013-02-07 08:55:00,
2013-02-07 02:00:00,44.1,31.9,30.09,SE,146,3.0,3.0,62,0.00,,,0.00,Wunderground v.1.15,2013-02-07 09:00:00,
2013-02-07 02:10:00,43.2,31.8,30.08,SE,146,3.0,3.0,64,0.00,,,0.00,Wunderground v.1.15,2013-02-07 09:10:00,
2013-02-07 02:15:00,43.3,31.5,30.08,SE,146,2.0,3.0,63,0.00,,,0.00,Wunderground v.1.15,2013-02-07 09:15:00,
2013-02-07 02:25:00,42.5,31.2,30.08,SE,146,3.0,4.0,64,0.00,,,0.00,Wunderground v.1.15,2013-02-07 09:25:00,
2013-02-07 02:30:00,41.8,31.6,30.08,SE,146,4.0,4.0,67,0.00,,,0.00,Wunderground v.1.15,2013-02-07 09:30:00,
2013-02-07 02:35:00,41.3,31.5,30.08,SE,146,4.0,4.0,68,0.00,,,0.00,Wunderground v.1.15,2013-02-07 09:35:00,
2013-02-07 02:40:00,41.6,31.4,30.08,SE,146,4.0,5.0,67,0.00,,,0.00,Wunderground v.1.15,2013-02-07 09:40:00,
2013-02-07 02:45:00,41.5,31.4,30.08,SE,146,5.0,5.0,67,0.00,,,0.00,Wunderground v.1.15,2013-02-07 09:45:00,
2013-02-07 02:55:00,40.8,31.1,30.08,SSE,150,6.0,6.0,68,0.00,,,0.00,Wunderground v.1.15,2013-02-07 09:55:00,
2013-02-07 03:00:00,41.2,31.4,30.08,SSE,150,4.0,4.0,68,0.00,,,0.00,Wunderground v.1.15,2013-02-07 10:00:00,
2013-02-07 03:05:00,40.9,31.5,30.08,South,177,3.0,7.0,69,0.00,,,0.00,Wunderground v.1.15,2013-02-07 10:05:00,
2013-02-07 03:15:00,42.2,31.3,30.08,South,177,4.0,6.0,65,0.00,,,0.00,Wunderground v.1.15,2013-02-07 10:15:00,
2013-02-07 03:20:00,41.6,32.2,30.08,SSW,211,5.0,8.0,69,0.00,,,0.00,Wunderground v.1.15,2013-02-07 10:20:00,
2013-02-07 03:30:00,41.6,31.8,30.08,SSW,213,5.0,5.0,68,0.00,,,0.00,Wunderground v.1.15,2013-02-07 10:30:00,
2013-02-07 03:40:00,42.2,31.6,30.07,SSW,212,3.0,3.0,66,0.00,,,0.00,Wunderground v.1.15,2013-02-07 10:40:00,
2013-02-07 03:50:00,42.2,31.3,30.08,SSW,212,3.0,3.0,65,0.00,,,0.00,Wunderground v.1.15,2013-02-07 10:50:00,
2013-02-07 03:55:00,41.9,31.0,30.08,SSW,212,2.0,3.0,65,0.00,,,0.00,Wunderground v.1.15,2013-02-07 10:55:00,
2013-02-07 04:00:00,41.6,31.1,30.08,SSW,212,2.0,3.0,66,0.00,,,0.00,Wunderground v.1.15,2013-02-07 11:00:00,
2013-02-07 04:05:00,42.3,31.0,30.08,SSW,212,2.0,3.0,64,0.00,,,0.00,Wunderground v.1.15,2013-02-07 11:05:00,
2013-02-07 04:15:00,39.5,30.5,30.08,SSW,212,3.0,4.0,70,0.00,,,0.00,Wunderground v.1.15,2013-02-07 11:15:00,
2013-02-07 04:20:00,38.3,30.1,30.08,SSW,212,4.0,4.0,72,0.00,,,0.00,Wunderground v.1.15,2013-02-07 11:20:00,
2013-02-07 04:25:00,38.6,30.0,30.08,SSW,212,4.0,4.0,71,0.00,,,0.00,Wunderground v.1.15,2013-02-07 11:25:00,
2013-02-07 04:30:00,38.5,29.9,30.08,SSW,212,4.0,4.0,71,0.00,,,0.00,Wunderground v.1.15,2013-02-07 11:30:00,
2013-02-07 04:35:00,38.6,29.7,30.08,SSW,212,4.0,4.0,70,0.00,,,0.00,Wunderground v.1.15,2013-02-07 11:35:00,
2013-02-07 04:40:00,38.9,29.9,30.08,SSW,212,4.0,4.0,70,0.00,,,0.00,Wunderground v.1.15,2013-02-07 11:40:00,
2013-02-07 04:45:00,38.8,30.2,30.08,SSW,212,4.0,5.0,71,0.00,,,0.00,Wunderground v.1.15,2013-02-07 11:45:00,
2013-02-07 04:50:00,38.8,29.8,30.09,SSW,212,5.0,5.0,70,0.00,,,0.00,Wunderground v.1.15,2013-02-07 11:50:00,
2013-02-07 04:55:00,38.3,29.7,30.08,SSW,212,4.0,5.0,71,0.00,,,0.00,Wunderground v.1.15,2013-02-07 11:55:00,
2013-02-07 05:00:00,38.3,29.7,30.09,SSW,212,4.0,4.0,71,0.00,,,0.00,Wunderground v.1.15,2013-02-07 12:00:00,
2013-02-07 05:05:00,38.8,29.8,30.09,SSW,212,3.0,4.0,70,0.00,,,0.00,Wunderground v.1.15,2013-02-07 12:05:00,
2013-02-07 05:15:00,40.1,30.0,30.09,SSW,211,2.0,3.0,67,0.00,,,0.00,Wunderground v.1.15,2013-02-07 12:15:00,
2013-02-07 05:25:00,38.9,29.9,30.09,SSW,212,3.0,5.0,70,0.00,,,0.00,Wunderground v.1.15,2013-02-07 12:25:00,
2013-02-07 05:30:00,38.2,30.0,30.10,SSW,212,4.0,4.0,72,0.00,,,0.00,Wunderground v.1.15,2013-02-07 12:30:00,
2013-02-07 05:36:00,38.6,30.0,30.09,SSW,212,3.0,4.0,71,0.00,,,0.00,Wunderground v.1.15,2013-02-07 12:36:00,
2013-02-07 05:45:00,37.9,29.0,30.10,SSW,212,3.0,4.0,70,0.00,,,0.00,Wunderground v.1.15,2013-02-07 12:45:00,
2013-02-07 05:50:00,37.6,29.0,30.10,SSW,211,4.0,5.0,71,0.00,,,0.00,Wunderground v.1.15,2013-02-07 12:50:00,
2013-02-07 05:55:00,36.9,29.1,30.10,SSW,212,4.0,6.0,73,0.00,,,0.00,Wunderground v.1.15,2013-02-07 12:55:00,
2013-02-07 06:00:00,36.9,29.7,30.10,SSW,212,5.0,5.0,75,0.00,,,0.00,Wunderground v.1.15,2013-02-07 13:00:00,
2013-02-07 06:05:00,37.3,29.4,30.10,SSW,212,5.0,5.0,73,0.00,,,0.00,Wunderground v.1.15,2013-02-07 13:05:00,
2013-02-07 06:15:00,36.5,29.0,30.11,SSW,211,4.0,5.0,74,0.00,,,0.00,Wunderground v.1.15,2013-02-07 13:15:00,
2013-02-07 06:20:00,36.3,29.5,30.11,SSW,211,4.0,4.0,76,0.00,,,0.00,Wunderground v.1.15,2013-02-07 13:20:00,
2013-02-07 06:25:00,36.0,29.2,30.11,SSW,212,4.0,4.0,76,0.00,,,0.00,Wunderground v.1.15,2013-02-07 13:25:00,
2013-02-07 06:30:00,35.8,29.6,30.11,SSW,212,5.0,5.0,78,0.00,,,0.00,Wunderground v.1.15,2013-02-07 13:30:00,
2013-02-07 06:40:00,36.3,29.5,30.11,SSW,212,4.0,4.0,76,0.00,,,0.00,Wunderground v.1.15,2013-02-07 13:40:00,
2013-02-07 06:45:00,36.6,29.7,30.11,SSW,211,4.0,6.0,76,0.00,,,0.00,Wunderground v.1.15,2013-02-07 13:45:00,
2013-02-07 06:50:00,37.0,29.8,30.12,SSW,211,5.0,5.0,75,0.00,,,0.00,Wunderground v.1.15,2013-02-07 13:50:00,
2013-02-07 06:55:00,37.6,29.4,30.12,SSW,211,4.0,5.0,72,0.00,,,0.00,Wunderground v.1.15,2013-02-07 13:55:00,
2013-02-07 07:00:00,36.8,29.3,30.12,SSW,211,4.0,4.0,74,0.00,,,0.00,Wunderground v.1.15,2013-02-07 14:00:00,
2013-02-07 07:05:00,36.9,29.4,30.12,SSW,211,4.0,6.0,74,0.00,,,0.00,Wunderground v.1.15,2013-02-07 14:05:00,
2013-02-07 07:15:00,38.2,29.6,30.12,SSW,211,5.0,5.0,71,0.00,,,0.00,Wunderground v.1.15,2013-02-07 14:15:00,
2013-02-07 07:20:00,38.5,29.9,30.12,SSW,211,4.0,4.0,71,0.00,,,0.00,Wunderground v.1.15,2013-02-07 14:20:00,
2013-02-07 07:25:00,39.2,29.5,30.12,SSW,211,3.0,4.0,68,0.00,,,0.00,Wunderground v.1.15,2013-02-07 14:25:00,
2013-02-07 07:30:00,39.8,29.7,30.12,SSW,211,3.0,3.0,67,0.00,,,0.00,Wunderground v.1.15,2013-02-07 14:30:00,
2013-02-07 07:35:00,40.2,30.1,30.12,SSW,211,4.0,4.0,67,0.00,,,0.00,Wunderground v.1.15,2013-02-07 14:35:00,
2013-02-07 07:45:00,40.5,30.8,30.13,SSW,211,3.0,3.0,68,0.00,,,0.00,Wunderground v.1.15,2013-02-07 14:45:00,
2013-02-07 07:50:00,40.9,30.8,30.13,SSW,211,3.0,3.0,67,0.00,,,0.00,Wunderground v.1.15,2013-02-07 14:50:00,
2013-02-07 07:55:00,41.6,31.4,30.13,SSW,211,3.0,3.0,67,0.00,,,0.00,Wunderground v.1.15,2013-02-07 14:55:00,
2013-02-07 08:05:00,43.3,32.7,30.14,SSW,211,2.0,3.0,66,0.00,,,0.00,Wunderground v.1.15,2013-02-07 15:05:00,
2013-02-07 08:15:00,45.1,33.6,30.14,SSW,211,0.0,1.0,64,0.00,,,0.00,Wunderground v.1.15,2013-02-07 15:15:00,
2013-02-07 08:20:00,46.0,34.1,30.14,SSW,211,0.0,0.0,63,0.00,,,0.00,Wunderground v.1.15,2013-02-07 15:20:00,
2013-02-07 08:25:00,46.7,34.0,30.14,SSW,211,0.0,1.0,61,0.00,,,0.00,Wunderground v.1.15,2013-02-07 15:25:00,
2013-02-07 08:35:00,48.2,34.5,30.15,SSW,211,0.0,2.0,59,0.00,,,0.00,Wunderground v.1.15,2013-02-07 15:35:00,
2013-02-07 08:40:00,48.8,34.2,30.15,SSW,211,1.0,1.0,57,0.00,,,0.00,Wunderground v.1.15,2013-02-07 15:40:00,
2013-02-07 08:45:00,49.2,34.6,30.16,SSW,211,1.0,2.0,57,0.00,,,0.00,Wunderground v.1.15,2013-02-07 15:45:00,
2013-02-07 08:50:00,49.6,35.0,30.15,SSW,211,1.0,1.0,57,0.00,,,0.00,Wunderground v.1.15,2013-02-07 15:50:00,
2013-02-07 08:55:00,49.9,33.9,30.15,SSW,211,1.0,1.0,54,0.00,,,0.00,Wunderground v.1.15,2013-02-07 15:55:00,
2013-02-07 09:00:00,50.1,34.1,30.15,SSW,211,1.0,2.0,54,0.00,,,0.00,Wunderground v.1.15,2013-02-07 16:00:00,
2013-02-07 09:05:00,50.5,33.5,30.15,SSW,211,1.0,2.0,52,0.00,,,0.00,Wunderground v.1.15,2013-02-07 16:05:00,
2013-02-07 09:15:00,51.0,33.5,30.15,SSW,210,1.0,1.0,51,0.00,,,0.00,Wunderground v.1.15,2013-02-07 16:15:00,
2013-02-07 09:20:00,51.3,33.8,30.16,SSW,210,2.0,3.0,51,0.00,,,0.00,Wunderground v.1.15,2013-02-07 16:20:00,
2013-02-07 09:25:00,51.6,34.0,30.16,SSW,211,2.0,4.0,51,0.00,,,0.00,Wunderground v.1.15,2013-02-07 16:25:00,
2013-02-07 09:30:00,51.9,33.3,30.16,SSW,211,2.0,2.0,49,0.00,,,0.00,Wunderground v.1.15,2013-02-07 16:30:00,
2013-02-07 09:40:00,52.5,33.9,30.16,SSW,211,2.0,2.0,49,0.00,,,0.00,Wunderground v.1.15,2013-02-07 16:40:00,
2013-02-07 09:45:00,52.8,31.5,30.16,West,261,3.0,4.0,44,0.00,,,0.00,Wunderground v.1.15,2013-02-07 16:45:00,
2013-02-07 09:50:00,52.8,31.5,30.16,WNW,300,3.0,4.0,44,0.00,,,0.00,Wunderground v.1.15,2013-02-07 16:50:00,
2013-02-07 09:55:00,52.8,32.6,30.16,WNW,300,3.0,4.0,46,0.00,,,0.00,Wunderground v.1.15,2013-02-07 16:55:00,
2013-02-07 10:00:00,52.6,31.8,30.16,WNW,301,3.0,5.0,45,0.00,,,0.00,Wunderground v.1.15,2013-02-07 17:00:00,
2013-02-07 10:05:00,52.8,30.3,30.16,NW,318,3.0,5.0,42,0.00,,,0.00,Wunderground v.1.15,2013-02-07 17:05:00,
2013-02-07 10:15:00,53.2,30.7,30.16,NE,35,2.0,3.0,42,0.00,,,0.00,Wunderground v.1.15,2013-02-07 17:15:00,
2013-02-07 10:20:00,53.5,31.0,30.16,NE,36,3.0,3.0,42,0.00,,,0.00,Wunderground v.1.15,2013-02-07 17:20:00,
2013-02-07 10:25:00,54.1,31.5,30.16,NE,35,3.0,3.0,42,0.00,,,0.00,Wunderground v.1.15,2013-02-07 17:25:00,
2013-02-07 10:30:00,54.2,31.0,30.16,NE,36,2.0,4.0,41,0.00,,,0.00,Wunderground v.1.15,2013-02-07 17:30:00,
2013-02-07 10:35:00,53.5,31.0,30.16,NE,44,3.0,3.0,42,0.00,,,0.00,Wunderground v.1.15,2013-02-07 17:35:00,
2013-02-07 10:45:00,54.4,30.6,30.16,NE,45,1.0,2.0,40,0.00,,,0.00,Wunderground v.1.15,2013-02-07 17:45:00,
2013-02-07 10:50:00,55.0,30.5,30.16,NE,46,1.0,2.0,39,0.00,,,0.00,Wunderground v.1.15,2013-02-07 17:50:00,
2013-02-07 10:55:00,54.8,30.3,30.16,North,5,3.0,3.0,39,0.00,,,0.00,Wunderground v.1.15,2013-02-07 17:55:00,
2013-02-07 11:00:00,54.5,30.6,30.16,North,9,3.0,3.0,40,0.00,,,0.00,Wunderground v.1.15,2013-02-07 18:00:00,
2013-02-07 11:05:00,53.9,30.1,30.16,East,82,3.0,3.0,40,0.00,,,0.00,Wunderground v.1.15,2013-02-07 18:05:00,
2013-02-07 11:15:00,54.1,30.3,30.15,ENE,69,4.0,4.0,40,0.00,,,0.00,Wunderground v.1.15,2013-02-07 18:15:00,
2013-02-07 11:20:00,54.7,30.2,30.15,ENE,69,3.0,3.0,39,0.00,,,0.00,Wunderground v.1.15,2013-02-07 18:20:00,
2013-02-07 11:25:00,55.1,29.9,30.15,ENE,65,3.0,4.0,38,0.00,,,0.00,Wunderground v.1.15,2013-02-07 18:25:00,
2013-02-07 11:30:00,55.1,29.9,30.15,East,92,4.0,6.0,38,0.00,,,0.00,Wunderground v.1.15,2013-02-07 18:30:00,
2013-02-07 11:35:00,54.8,29.0,30.15,ESE,108,5.0,6.0,37,0.00,,,0.00,Wunderground v.1.15,2013-02-07 18:35:00,
2013-02-07 11:40:00,54.8,29.7,30.15,NE,40,5.0,5.0,38,0.00,,,0.00,Wunderground v.1.15,2013-02-07 18:40:00,
2013-02-07 11:50:00,55.1,28.6,30.14,East,94,4.0,4.0,36,0.00,,,0.00,Wunderground v.1.15,2013-02-07 18:50:00,
2013-02-07 11:55:00,54.5,28.7,30.14,East,95,4.0,4.0,37,0.00,,,0.00,Wunderground v.1.15,2013-02-07 18:55:00,
2013-02-07 12:00:00,55.3,28.8,30.14,East,96,3.0,6.0,36,0.00,,,0.00,Wunderground v.1.15,2013-02-07 19:00:00,
2013-02-07 12:05:00,55.9,29.3,30.14,East,93,3.0,6.0,36,0.00,,,0.00,Wunderground v.1.15,2013-02-07 19:05:00,
2013-02-07 12:15:00,55.9,26.4,30.13,East,94,4.0,4.0,32,0.00,,,0.00,Wunderground v.1.15,2013-02-07 19:15:00,
2013-02-07 12:20:00,56.3,27.5,30.13,East,93,3.0,11.0,33,0.00,,,0.00,Wunderground v.1.15,2013-02-07 19:20:00,
2013-02-07 12:25:00,56.0,25.8,30.13,ENE,58,3.0,11.0,31,0.00,,,0.00,Wunderground v.1.15,2013-02-07 19:25:00,
2013-02-07 12:30:00,56.7,26.4,30.13,ENE,61,4.0,4.0,31,0.00,,,0.00,Wunderground v.1.15,2013-02-07 19:30:00,
2013-02-07 12:35:00,56.9,25.7,30.12,East,92,3.0,4.0,30,0.00,,,0.00,Wunderground v.1.15,2013-02-07 19:35:00,
2013-02-07 12:40:00,56.5,24.6,30.12,ESE,104,4.0,4.0,29,0.00,,,0.00,Wunderground v.1.15,2013-02-07 19:40:00,
2013-02-07 12:50:00,56.5,25.4,30.11,East,97,4.0,4.0,30,0.00,,,0.00,Wunderground v.1.15,2013-02-07 19:50:00,
2013-02-07 12:55:00,56.5,25.4,30.11,East,96,5.0,5.0,30,0.00,,,0.00,Wunderground v.1.15,2013-02-07 19:55:00,
2013-02-07 13:05:00,57.3,26.1,30.11,ENE,69,4.0,4.0,30,0.00,,,0.00,Wunderground v.1.15,2013-02-07 20:05:00,
2013-02-07 13:15:00,58.1,21.4,30.10,ESE,114,4.0,9.0,24,0.00,,,0.00,Wunderground v.1.15,2013-02-07 20:15:00,
2013-02-07 13:20:00,58.3,22.6,30.10,ESE,115,4.0,9.0,25,0.00,,,0.00,Wunderground v.1.15,2013-02-07 20:20:00,
2013-02-07 13:25:00,58.4,20.7,30.09,SE,132,5.0,7.0,23,0.00,,,0.00,Wunderground v.1.15,2013-02-07 20:25:00,
2013-02-07 13:30:00,58.4,24.5,30.09,SE,132,5.0,7.0,27,0.00,,,0.00,Wunderground v.1.15,2013-02-07 20:30:00,
2013-02-07 13:35:00,58.3,22.6,30.09,SE,146,4.0,7.0,25,0.00,,,0.00,Wunderground v.1.15,2013-02-07 20:35:00,
2013-02-07 13:40:00,58.7,21.0,30.09,SE,140,6.0,7.0,23,0.00,,,0.00,Wunderground v.1.15,2013-02-07 20:40:00,
2013-02-07 13:45:00,58.6,21.9,30.08,ESE,105,8.0,11.0,24,0.00,,,0.00,Wunderground v.1.15,2013-02-07 20:45:00,
2013-02-07 13:55:00,58.9,23.1,30.08,ESE,102,6.0,6.0,25,0.00,,,0.00,Wunderground v.1.15,2013-02-07 20:55:00,
2013-02-07 14:00:00,58.6,21.9,30.08,ESE,107,7.0,7.0,24,0.00,,,0.00,Wunderground v.1.15,2013-02-07 21:00:00,
2013-02-07 14:05:00,58.7,22.9,30.08,East,90,8.0,8.0,25,0.00,,,0.00,Wunderground v.1.15,2013-02-07 21:05:00,
2013-02-07 14:15:00,59.2,23.4,30.07,ESE,103,8.0,8.0,25,0.00,,,0.00,Wunderground v.1.15,2013-02-07 21:15:00,
2013-02-07 14:25:00,59.8,22.9,30.07,East,92,9.0,9.0,24,0.00,,,0.00,Wunderground v.1.15,2013-02-07 21:25:00,
2013-02-07 14:30:00,59.8,22.9,30.06,ESE,115,8.0,9.0,24,0.00,,,0.00,Wunderground v.1.15,2013-02-07 21:30:00,
2013-02-07 14:35:00,60.2,23.2,30.06,East,101,8.0,11.0,24,0.00,,,0.00,Wunderground v.1.15,2013-02-07 21:35:00,
2013-02-07 14:40:00,60.2,22.2,30.06,ESE,102,9.0,11.0,23,0.00,,,0.00,Wunderground v.1.15,2013-02-07 21:40:00,
2013-02-07 14:45:00,60.4,24.4,30.06,SE,132,10.0,15.0,25,0.00,,,0.00,Wunderground v.1.15,2013-02-07 21:45:00,
2013-02-07 14:50:00,60.4,23.4,30.06,East,98,10.0,10.0,24,0.00,,,0.00,Wunderground v.1.15,2013-02-07 21:50:00,
2013-02-07 15:00:00,60.4,21.3,30.06,ESE,112,10.0,10.0,22,0.00,,,0.00,Wunderground v.1.15,2013-02-07 22:00:00,
2013-02-07 15:05:00,60.4,21.3,30.06,ESE,113,9.0,10.0,22,0.00,,,0.00,Wunderground v.1.15,2013-02-07 22:05:00,
2013-02-07 15:15:00,60.7,21.6,30.06,SE,128,9.0,13.0,22,0.00,,,0.00,Wunderground v.1.15,2013-02-07 22:15:00,
2013-02-07 15:20:00,60.4,22.4,30.05,ESE,109,10.0,11.0,23,0.00,,,0.00,Wunderground v.1.15,2013-02-07 22:20:00,
2013-02-07 15:30:00,60.9,21.8,30.05,SE,130,11.0,11.0,22,0.00,,,0.00,Wunderground v.1.15,2013-02-07 22:30:00,
2013-02-07 15:35:00,60.7,20.5,30.05,SE,124,9.0,11.0,21,0.00,,,0.00,Wunderground v.1.15,2013-02-07 22:35:00,
2013-02-07 15:40:00,60.5,20.3,30.05,ESE,109,10.0,10.0,21,0.00,,,0.00,Wunderground v.1.15,2013-02-07 22:40:00,
2013-02-07 15:45:00,61.0,20.7,30.05,SE,127,10.0,10.0,21,0.00,,,0.00,Wunderground v.1.15,2013-02-07 22:45:00,
2013-02-07 15:50:00,61.0,21.8,30.05,ESE,110,10.0,12.0,22,0.00,,,0.00,Wunderground v.1.15,2013-02-07 22:50:00,
2013-02-07 15:55:00,60.9,21.8,30.05,ESE,109,10.0,13.0,22,0.00,,,0.00,Wunderground v.1.15,2013-02-07 22:55:00,
2013-02-07 16:00:00,61.0,21.8,30.05,SE,127,10.0,12.0,22,0.00,,,0.00,Wunderground v.1.15,2013-02-07 23:00:00,
2013-02-07 16:05:00,61.0,21.8,30.05,SE,145,11.0,12.0,22,0.00,,,0.00,Wunderground v.1.15,2013-02-07 23:05:00,
2013-02-07 16:15:00,60.7,22.6,30.05,ESE,113,8.0,13.0,23,0.00,,,0.00,Wunderground v.1.15,2013-02-07 23:15:00,
2013-02-07 16:20:00,61.0,22.9,30.06,SE,134,9.0,11.0,23,0.00,,,0.00,Wunderground v.1.15,2013-02-07 23:20:00,
2013-02-07 16:25:00,61.0,22.9,30.06,SE,130,8.0,11.0,23,0.00,,,0.00,Wunderground v.1.15,2013-02-07 23:25:00,
2013-02-07 16:35:00,61.0,22.9,30.05,ESE,110,7.0,7.0,23,0.00,,,0.00,Wunderground v.1.15,2013-02-07 23:35:00,
2013-02-07 16:40:00,61.0,22.9,30.06,ESE,117,6.0,6.0,23,0.00,,,0.00,Wunderground v.1.15,2013-02-07 23:40:00,
2013-02-07 16:45:00,61.0,23.9,30.05,ESE,123,5.0,6.0,24,0.00,,,0.00,Wunderground v.1.15,2013-02-07 23:45:00,
2013-02-07 16:50:00,60.9,23.8,30.05,SE,128,6.0,8.0,24,0.00,,,0.00,Wunderground v.1.15,2013-02-07 23:50:00,
2013-02-07 16:55:00,60.7,23.7,30.06,SE,137,7.0,9.0,24,0.00,,,0.00,Wunderground v.1.15,2013-02-07 23:55:00,
2013-02-07 17:05:00,60.4,23.4,30.06,SE,140,7.0,7.0,24,0.00,,,0.00,Wunderground v.1.15,2013-02-08 00:05:00,
2013-02-07 17:15:00,60.1,24.1,30.05,SE,131,4.0,6.0,25,0.00,,,0.00,Wunderground v.1.15,2013-02-08 00:15:00,
2013-02-07 17:20:00,59.5,24.5,30.05,SE,137,6.0,6.0,26,0.00,,,0.00,Wunderground v.1.15,2013-02-08 00:20:00,
2013-02-07 17:25:00,58.7,23.9,30.05,SE,137,5.0,6.0,26,0.00,,,0.00,Wunderground v.1.15,2013-02-08 00:25:00,
2013-02-07 17:30:00,58.1,24.3,30.05,SE,137,3.0,3.0,27,0.00,,,0.00,Wunderground v.1.15,2013-02-08 00:30:00,
2013-02-07 17:40:00,56.9,24.1,30.05,SE,137,2.0,2.0,28,0.00,,,0.00,Wunderground v.1.15,2013-02-08 00:40:00,
2013-02-07 17:45:00,56.2,23.5,30.05,SE,137,2.0,2.0,28,0.00,,,0.00,Wunderground v.1.15,2013-02-08 00:45:00,
2013-02-07 17:50:00,55.7,24.7,30.05,SE,137,2.0,2.0,30,0.00,,,0.00,Wunderground v.1.15,2013-02-08 00:50:00,
2013-02-07 17:55:00,55.4,24.4,30.05,SE,137,1.0,2.0,30,0.00,,,0.00,Wunderground v.1.15,2013-02-08 00:55:00,
2013-02-07 18:05:00,54.1,24.1,30.05,SE,137,2.0,2.0,31,0.00,,,0.00,Wunderground v.1.15,2013-02-08 01:05:00,
2013-02-07 18:15:00,51.9,24.4,30.05,SE,138,4.0,5.0,34,0.00,,,0.00,Wunderground v.1.15,2013-02-08 01:15:00,
2013-02-07 18:25:00,51.0,23.6,30.05,SE,142,5.0,5.0,34,0.00,,,0.00,Wunderground v.1.15,2013-02-08 01:25:00,
2013-02-07 18:30:00,51.0,23.6,30.05,SSE,152,6.0,6.0,34,0.00,,,0.00,Wunderground v.1.15,2013-02-08 01:30:00,
2013-02-07 18:35:00,51.0,23.6,30.05,SSE,153,6.0,6.0,34,0.00,,,0.00,Wunderground v.1.15,2013-02-08 01:35:00,
2013-02-07 18:40:00,51.0,24.3,30.05,SSE,153,5.0,6.0,35,0.00,,,0.00,Wunderground v.1.15,2013-02-08 01:40:00,
2013-02-07 18:45:00,50.2,24.2,30.05,SSE,153,5.0,7.0,36,0.00,,,0.00,Wunderground v.1.15,2013-02-08 01:45:00,
2013-02-07 18:50:00,49.9,22.6,30.05,SW,218,6.0,7.0,34,0.00,,,0.00,Wunderground v.1.15,2013-02-08 01:50:00,
2013-02-07 19:00:00,51.0,21.4,30.06,SW,219,6.0,6.0,31,0.00,,,0.00,Wunderground v.1.15,2013-02-08 02:00:00,
2013-02-07 19:05:00,50.8,22.0,30.06,SW,219,5.0,6.0,32,0.00,,,0.00,Wunderground v.1.15,2013-02-08 02:05:00,
2013-02-07 19:15:00,49.4,22.9,30.06,SW,219,5.0,5.0,35,0.00,,,0.00,Wunderground v.1.15,2013-02-08 02:15:00,
2013-02-07 19:20:00,48.8,22.3,30.06,SW,219,5.0,5.0,35,0.00,,,0.00,Wunderground v.1.15,2013-02-08 02:20:00,
2013-02-07 19:25:00,50.1,19.8,30.06,SW,218,5.0,5.0,30,0.00,,,0.00,Wunderground v.1.15,2013-02-08 02:25:00,
2013-02-07 19:35:00,51.6,19.5,30.06,SW,215,4.0,5.0,28,0.00,,,0.00,Wunderground v.1.15,2013-02-08 02:35:00,
2013-02-07 19:40:00,52.5,20.3,30.06,SW,214,4.0,4.0,28,0.00,,,0.00,Wunderground v.1.15,2013-02-08 02:40:00,
2013-02-07 19:45:00,52.3,19.3,30.06,SSW,207,3.0,4.0,27,0.00,,,0.00,Wunderground v.1.15,2013-02-08 02:45:00,
2013-02-07 19:50:00,53.6,20.4,30.07,SSW,205,4.0,4.0,27,0.00,,,0.00,Wunderground v.1.15,2013-02-08 02:50:00,
2013-02-07 19:55:00,53.8,20.6,30.06,SSW,205,5.0,5.0,27,0.00,,,0.00,Wunderground v.1.15,2013-02-08 02:55:00,
2013-02-07 20:05:00,53.1,20.0,30.06,SSW,205,4.0,7.0,27,0.00,,,0.00,Wunderground v.1.15,2013-02-08 03:05:00,
2013-02-07 20:15:00,52.9,20.6,30.06,SSW,204,4.0,5.0,28,0.00,,,0.00,Wunderground v.1.15,2013-02-08 03:15:00,
2013-02-07 20:20:00,52.8,20.5,30.06,SSW,205,4.0,4.0,28,0.00,,,0.00,Wunderground v.1.15,2013-02-08 03:20:00,
2013-02-07 20:25:00,51.9,21.4,30.06,SSW,205,4.0,4.0,30,0.00,,,0.00,Wunderground v.1.15,2013-02-08 03:25:00,
2013-02-07 20:30:00,50.8,21.2,30.06,SSW,205,3.0,3.0,31,0.00,,,0.00,Wunderground v.1.15,2013-02-08 03:30:00,
2013-02-07 20:40:00,51.1,20.7,30.06,SSW,198,2.0,2.0,30,0.00,,,0.00,Wunderground v.1.15,2013-02-08 03:40:00,
2013-02-07 20:45:00,51.0,21.4,30.06,SSW,198,2.0,2.0,31,0.00,,,0.00,Wunderground v.1.15,2013-02-08 03:45:00,
2013-02-07 20:50:00,51.1,21.5,30.06,SSW,198,2.0,2.0,31,0.00,,,0.00,Wunderground v.1.15,2013-02-08 03:50:00,
2013-02-07 20:55:00,51.4,21.7,30.06,South,182,2.0,2.0,31,0.00,,,0.00,Wunderground v.1.15,2013-02-08 03:55:00,
2013-02-07 21:00:00,51.9,20.6,30.06,South,182,2.0,2.0,29,0.00,,,0.00,Wunderground v.1.15,2013-02-08 04:00:00,
2013-02-07 21:05:00,52.3,22.5,30.06,South,182,1.0,2.0,31,0.00,,,0.00,Wunderground v.1.15,2013-02-08 04:05:00,
2013-02-07 21:15:00,53.2,20.0,30.06,SSW,200,3.0,6.0,27,0.00,,,0.00,Wunderground v.1.15,2013-02-08 04:15:00,
2013-02-07 21:20:00,53.2,20.9,30.06,SSW,200,3.0,3.0,28,0.00,,,0.00,Wunderground v.1.15,2013-02-08 04:20:00,
2013-02-07 21:25:00,52.8,19.7,30.06,SSW,200,1.0,3.0,27,0.00,,,0.00,Wunderground v.1.15,2013-02-08 04:25:00,
2013-02-07 21:30:00,52.9,21.5,30.05,SSW,200,1.0,4.0,29,0.00,,,0.00,Wunderground v.1.15,2013-02-08 04:30:00,
2013-02-07 21:35:00,52.6,20.4,30.06,SSW,199,2.0,4.0,28,0.00,,,0.00,Wunderground v.1.15,2013-02-08 04:35:00,
2013-02-07 21:45:00,53.2,20.9,30.06,SSW,199,2.0,2.0,28,0.00,,,0.00,Wunderground v.1.15,2013-02-08 04:45:00,
2013-02-07 21:50:00,51.9,22.2,30.06,SSW,199,2.0,2.0,31,0.00,,,0.00,Wunderground v.1.15,2013-02-08 04:50:00,
2013-02-07 21:55:00,51.1,22.2,30.05,SSW,199,1.0,2.0,32,0.00,,,0.00,Wunderground v.1.15,2013-02-08 04:55:00,
2013-02-07 22:00:00,50.4,22.3,30.06,SSW,199,0.0,4.0,33,0.00,,,0.00,Wunderground v.1.15,2013-02-08 05:00:00,
2013-02-07 22:05:00,49.9,21.9,30.05,SSW,199,1.0,4.0,33,0.00,,,0.00,Wunderground v.1.15,2013-02-08 05:05:00,
2013-02-07 22:15:00,48.9,21.7,30.05,SSW,199,4.0,4.0,34,0.00,,,0.00,Wunderground v.1.15,2013-02-08 05:15:00,
2013-02-07 22:20:00,49.8,22.5,30.05,SSW,198,4.0,5.0,34,0.00,,,0.00,Wunderground v.1.15,2013-02-08 05:20:00,
2013-02-07 22:25:00,48.6,22.8,30.05,SSW,198,4.0,5.0,36,0.00,,,0.00,Wunderground v.1.15,2013-02-08 05:25:00,
2013-02-07 22:30:00,48.8,20.9,30.05,SSW,198,4.0,4.0,33,0.00,,,0.00,Wunderground v.1.15,2013-02-08 05:30:00,
2013-02-07 22:35:00,49.8,20.3,30.05,SSW,195,2.0,4.0,31,0.00,,,0.00,Wunderground v.1.15,2013-02-08 05:35:00,
2013-02-07 22:40:00,50.5,19.4,30.05,SSW,195,1.0,1.0,29,0.00,,,0.00,Wunderground v.1.15,2013-02-08 05:40:00,
2013-02-07 22:50:00,51.7,19.6,30.05,SSW,195,1.0,1.0,28,0.00,,,0.00,Wunderground v.1.15,2013-02-08 05:50:00,
2013-02-07 22:55:00,51.7,19.6,30.05,SSW,195,1.0,1.0,28,0.00,,,0.00,Wunderground v.1.15,2013-02-08 05:55:00,
2013-02-07 23:00:00,51.6,20.3,30.05,SSW,195,1.0,1.0,29,0.00,,,0.00,Wunderground v.1.15,2013-02-08 06:00:00,
2013-02-07 23:05:00,51.6,19.5,30.05,SSW,195,1.0,4.0,28,0.00,,,0.00,Wunderground v.1.15,2013-02-08 06:05:00,
2013-02-07 23:15:00,50.5,20.9,30.04,SSW,194,1.0,1.0,31,0.00,,,0.00,Wunderground v.1.15,2013-02-08 06:15:00,
2013-02-07 23:20:00,49.6,20.9,30.04,SSW,194,1.0,1.0,32,0.00,,,0.00,Wunderground v.1.15,2013-02-08 06:20:00,
2013-02-07 23:25:00,49.4,20.7,30.04,SE,134,1.0,1.0,32,0.00,,,0.00,Wunderground v.1.15,2013-02-08 06:25:00,
2013-02-07 23:30:00,49.4,20.7,30.04,SE,134,1.0,1.0,32,0.00,,,0.00,Wunderground v.1.15,2013-02-08 06:30:00,
2013-02-07 23:35:00,49.6,20.2,30.04,SE,134,0.0,1.0,31,0.00,,,0.00,Wunderground v.1.15,2013-02-08 06:35:00,
2013-02-07 23:40:00,49.8,21.1,30.04,SE,134,1.0,1.0,32,0.00,,,0.00,Wunderground v.1.15,2013-02-08 06:40:00,
2013-02-07 23:45:00,49.9,20.4,30.04,SE,134,1.0,4.0,31,0.00,,,0.00,Wunderground v.1.15,2013-02-08 06:45:00,
2013-02-07 23:50:00,49.5,20.8,30.04,SE,134,2.0,2.0,32,0.00,,,0.00,Wunderground v.1.15,2013-02-08 06:50:00,
2013-02-07 23:55:00,49.4,19.2,30.04,South,171,2.0,5.0,30,0.00,,,0.00,Wunderground v.1.15,2013-02-08 06:55:00,